Grand Marais-Cook County, MN

2:00 AM CDT on July 25, 2014 (GMT -0500)
Grand Marais Airport (KCKC) Elev 1798 ft | 47.84 °N, 90.38 °W | Change Station

Current weather conditions updated 6 minutes ago

Clear
Clear
48 °F
Feels Like 48 °F
N
0
Wind Variable Wind from North

Today is forecast to be nearly the same temperature as yesterday. Afternoon showers and thunderstorms.

Today
High -- | Low -- °F
--% Chance of Precip.
Yesterday
High -- | Low -- °F
Precip. -- in
5:29 AM 8:45 PM
Waning Crescent, 3% visible
Pressure 29.95 in
Visibility 10.0 miles
Clouds Clear
Dew Point 46 °F
Humidity 93%
Rainfall 0.00 in
Snow Depth Not available.
UV 0 out of 12
Pollen 5.20 out of 12
Air Quality Not available.
Flu Activity Not available.
METAR KCKC 250654Z AUTO 00000KT 10SM CLR 09/08 A2995 RMK AO2

More Conditions Fewer Conditions

Pressure 29.95 in
Visibility 10.0 miles
Clouds Clear
Dew Point 46 °F
Humidity 93%
Rainfall 0.00 in
Snow Depth Not available.
UV 0 out of 12
Pollen 5.20 out of 12
Air Quality Not available.
Flu Activity Not available.
METAR KCKC 250654Z AUTO 00000KT 10SM CLR 09/08 A2995 RMK AO2

More Conditions Fewer Conditions

10-Day Weather Forecast

Almanac

Astronomy

Jul. 25, 2014 Rise Set
Actual Time 5:29 AM CDT 8:45 PM CDT
Civil Twilight 4:52 AM CDT 9:23 PM CDT
Nautical Twilight 4:02 AM CDT 10:11 PM CDT
Astronomical Twilight 3:00 AM CDT 11:13 PM CDT
Moon 4:32 AM CDT 7:38 PM CDT
Length of Visible Light 16h 30m
Length of Day
15h 16m
Tomorrow will be 2m 25s shorter.
Waning Crescent, 3% of the Moon is Illuminated
Today
Waning Crescent
Jul 26
New
Aug 3
First Quarter
Aug 10
Full
Aug 17
Last Quarter

Today's Extremes

State Highs State Lows

Community

WunderPhotos

Upload Photos

1,737,266 photos uploaded!

Nearby

Snow Depth

Station Depth Elevation
No new snow has been reported.

Earthquake Activity

City Distance Mag. Time & Date
No recent earthquake activity has been reported nearby.
Minimum magnitude displayed is 2.5.

Coastal Water Temperatures

Place Temperature
No Stations Reporting

Nearby Weather Stations

Station Location Temp. Windchill Dew Point Humidity Wind Precip. Elev Updated Type
RAWS SUPERIOR #1 MN, Croftville, MN 49 °F 49 °F 48 °F 98% North  at  0 mph 0.00 in / hr 1000 ft 12:39 AM CDT MADIS
Hungry Jack Lake, BWCA, MN 54.4 °F - 54 °F 97% NNE  at  0.0 mph 0.00 in / hr 1698 ft 1:50 AM CDT Normal
Clearwater Lake, BWCA, MN, Grand Marais, MN 54.1 °F - 53 °F 97% North  at  0.0 mph - / hr 1709 ft 10:55 PM CDT Normal
SundewTech, Grand Marais, MN 54.0 °F - 51 °F 90% NNE  at  0.0 mph 0.00 in / hr 676 ft 1:59 AM CDT Rapid Fire
Tucker Lake, Grand Marais, MN 56.6 °F - 54 °F 92% South  at  0.0 mph 0.00 in / hr 1870 ft 2:00 AM CDT Rapid Fire

Show More Stations Show Fewer Stations